createdAt,value
2023-03-27T00:01:39.498Z,19.22
2023-03-27T00:04:06.035Z,19.22
2023-03-27T00:06:32.477Z,19.20
2023-03-27T00:09:00.785Z,19.23
2023-03-27T00:11:28.040Z,19.20
2023-03-27T00:16:52.802Z,19.15
2023-03-27T00:19:19.352Z,19.21
2023-03-27T00:21:48.502Z,19.22
2023-03-27T00:24:15.765Z,19.25
2023-03-27T00:26:42.223Z,19.29
2023-03-27T00:31:53.405Z,19.21
2023-03-27T00:34:19.826Z,19.27
2023-03-27T00:36:48.143Z,19.25
2023-03-27T00:39:15.392Z,19.27
2023-03-27T00:41:41.859Z,19.24
2023-03-27T00:47:02.094Z,19.18
2023-03-27T00:49:28.533Z,19.19
2023-03-27T00:51:54.933Z,19.16
2023-03-27T00:54:22.199Z,19.17
2023-03-27T00:56:50.549Z,19.16
2023-03-27T01:02:14.711Z,19.14
2023-03-27T01:04:41.181Z,19.12
2023-03-27T01:07:09.479Z,19.16
2023-03-27T01:09:35.934Z,19.19
2023-03-27T01:12:02.294Z,19.15
2023-03-27T01:17:22.788Z,19.16
2023-03-27T01:19:49.255Z,19.17
2023-03-27T01:22:17.549Z,19.15
2023-03-27T01:24:43.887Z,19.20
2023-03-27T01:27:10.285Z,19.19
2023-03-27T01:32:33.226Z,19.14
2023-03-27T01:35:03.671Z,19.13
2023-03-27T01:37:30.163Z,19.16
2023-03-27T01:39:57.417Z,19.15
2023-03-27T01:42:25.682Z,19.11
2023-03-27T01:47:36.202Z,19.18
2023-03-27T01:50:04.493Z,19.10
2023-03-27T01:52:30.928Z,19.15
2023-03-27T01:54:57.341Z,19.05
2023-03-27T01:57:24.620Z,19.11
2023-03-27T02:02:35.978Z,19.10
2023-03-27T02:05:03.271Z,19.08
2023-03-27T02:07:29.693Z,19.09
2023-03-27T02:09:56.098Z,19.03
2023-03-27T02:12:22.508Z,19.05
2023-03-27T02:17:33.658Z,19.03
2023-03-27T02:20:00.037Z,19.11
2023-03-27T02:22:37.334Z,19.10
2023-03-27T02:25:05.213Z,19.12
2023-03-27T02:27:32.416Z,19.08
2023-03-27T02:32:54.292Z,19.06
2023-03-27T02:35:20.796Z,19.07
2023-03-27T02:37:47.315Z,19.07
2023-03-27T02:40:13.834Z,19.09
2023-03-27T02:42:41.083Z,19.08
2023-03-27T02:47:51.349Z,19.05
2023-03-27T02:50:18.652Z,19.07
2023-03-27T02:52:44.999Z,19.11
2023-03-27T02:55:12.219Z,19.06
2023-03-27T02:57:38.625Z,19.09
2023-03-27T03:02:48.828Z,19.06
2023-03-27T03:05:15.244Z,19.07
2023-03-27T03:07:42.735Z,19.11
2023-03-27T03:10:09.970Z,19.06
2023-03-27T03:12:36.376Z,19.05
2023-03-27T03:17:57.424Z,19.07
2023-03-27T03:20:23.958Z,19.09
2023-03-27T03:22:51.203Z,19.01
2023-03-27T03:25:20.317Z,19.02
2023-03-27T03:27:46.721Z,19.03
2023-03-27T03:32:58.091Z,19.08
2023-03-27T03:35:26.423Z,19.04
2023-03-27T03:37:53.697Z,19.03
2023-03-27T03:40:20.921Z,19.00
2023-03-27T03:42:48.169Z,19.01
2023-03-27T03:45:15.390Z,18.98
2023-03-27T03:47:41.909Z,19.00
2023-03-27T03:50:09.133Z,19.03
2023-03-27T03:52:38.261Z,18.97
2023-03-27T03:55:04.682Z,18.97
2023-03-27T03:57:32.971Z,18.96
2023-03-27T03:59:59.362Z,19.02
2023-03-27T04:02:26.659Z,18.98
2023-03-27T04:04:56.676Z,18.96
2023-03-27T04:07:25.836Z,18.98
2023-03-27T04:09:54.097Z,18.89
2023-03-27T04:12:20.524Z,18.94
2023-03-27T04:14:46.995Z,18.92
2023-03-27T04:17:14.271Z,18.96
2023-03-27T04:19:40.663Z,18.90
2023-03-27T04:22:07.091Z,18.88
2023-03-27T04:24:34.349Z,18.91
2023-03-27T04:27:00.810Z,18.91
2023-03-27T04:29:27.218Z,18.94
2023-03-27T04:31:56.414Z,18.85
2023-03-27T04:34:23.616Z,18.93
2023-03-27T04:36:50.009Z,18.88
2023-03-27T04:39:16.491Z,18.90
2023-03-27T04:41:42.913Z,18.86
2023-03-27T04:44:11.138Z,18.91
2023-03-27T04:46:37.597Z,18.95
2023-03-27T04:49:04.051Z,18.93
2023-03-27T04:51:30.375Z,19.04
2023-03-27T04:53:59.562Z,18.99
2023-03-27T04:56:25.956Z,18.98
2023-03-27T04:58:52.355Z,18.90
2023-03-27T05:01:18.835Z,18.89
2023-03-27T05:06:42.056Z,18.96
2023-03-27T05:09:10.364Z,18.95
2023-03-27T05:11:36.878Z,18.97
2023-03-27T05:14:04.277Z,19.05
2023-03-27T05:16:30.768Z,18.98
2023-03-27T05:21:52.238Z,18.94
2023-03-27T05:24:18.781Z,19.00
2023-03-27T05:26:46.211Z,18.94
2023-03-27T05:29:13.601Z,18.96
2023-03-27T05:31:40.096Z,19.10
2023-03-27T05:36:51.144Z,19.13
2023-03-27T05:39:17.603Z,19.15
2023-03-27T05:41:44.981Z,19.26
2023-03-27T05:44:12.405Z,19.32
2023-03-27T05:46:38.954Z,19.29
2023-03-27T05:51:51.180Z,19.08
2023-03-27T05:54:17.664Z,19.05
2023-03-27T05:56:44.158Z,19.08
2023-03-27T05:59:10.658Z,19.10
2023-03-27T06:01:38.059Z,19.08
2023-03-27T06:06:58.799Z,19.16
2023-03-27T06:09:25.283Z,19.13
2023-03-27T06:11:52.677Z,19.18
2023-03-27T06:14:20.069Z,19.33
2023-03-27T06:16:47.470Z,19.35
2023-03-27T06:22:08.946Z,19.31
2023-03-27T06:24:35.397Z,19.22
2023-03-27T06:27:02.742Z,19.14
2023-03-27T06:29:29.214Z,19.08
2023-03-27T06:31:55.629Z,19.11
2023-03-27T06:37:17.600Z,19.09
2023-03-27T06:39:45.033Z,19.11
2023-03-27T06:42:11.503Z,19.10
2023-03-27T06:44:37.978Z,19.03
2023-03-27T06:47:05.417Z,19.14
2023-03-27T06:52:28.989Z,19.12
2023-03-27T06:54:56.247Z,19.09
2023-03-27T06:57:22.958Z,19.15
2023-03-27T06:59:49.514Z,19.13
2023-03-27T07:02:17.032Z,19.10
2023-03-27T07:07:27.622Z,19.13
2023-03-27T07:09:55.012Z,19.21
2023-03-27T07:12:21.465Z,19.27
2023-03-27T07:14:51.580Z,19.30
2023-03-27T07:17:18.991Z,19.32
2023-03-27T07:22:30.529Z,19.20
2023-03-27T07:24:56.950Z,19.10
2023-03-27T07:27:23.378Z,19.04
2023-03-27T07:29:49.868Z,19.14
2023-03-27T07:32:36.369Z,19.14
2023-03-27T07:37:48.076Z,19.12
2023-03-27T07:40:14.565Z,19.08
2023-03-27T07:42:41.068Z,19.10
2023-03-27T07:45:08.477Z,19.11
2023-03-27T07:47:35.877Z,19.12
2023-03-27T07:52:46.908Z,19.11
2023-03-27T07:55:13.382Z,19.19
2023-03-27T07:57:55.061Z,19.32
2023-03-27T08:00:27.231Z,19.28
2023-03-27T08:02:54.775Z,19.01
2023-03-27T08:08:17.178Z,18.46
2023-03-27T08:10:44.331Z,18.41
2023-03-27T08:13:11.647Z,18.35
2023-03-27T08:15:38.917Z,18.31
2023-03-27T08:18:08.159Z,18.34
2023-03-27T08:23:18.530Z,18.11
2023-03-27T08:25:47.699Z,18.13
2023-03-27T08:28:17.625Z,18.12
2023-03-27T08:30:44.080Z,18.09
2023-03-27T08:33:10.606Z,18.17
2023-03-27T08:38:26.981Z,18.01
2023-03-27T08:40:56.390Z,17.98
2023-03-27T08:43:23.670Z,18.09
2023-03-27T08:45:50.032Z,17.96
2023-03-27T08:48:16.530Z,17.95
2023-03-27T08:53:37.724Z,18.08
2023-03-27T08:56:04.314Z,18.04
2023-03-27T08:58:31.543Z,18.15
2023-03-27T09:00:58.759Z,18.08
2023-03-27T09:03:25.191Z,18.13
2023-03-27T09:08:35.766Z,18.36
2023-03-27T09:11:03.023Z,18.06
2023-03-27T09:13:29.470Z,18.02
2023-03-27T09:15:56.855Z,17.94
2023-03-27T09:18:24.146Z,17.86
2023-03-27T09:23:35.221Z,17.85
2023-03-27T09:26:02.494Z,17.84
2023-03-27T09:28:28.927Z,17.96
2023-03-27T09:30:56.231Z,17.90
2023-03-27T09:33:22.635Z,17.74
2023-03-27T09:38:42.641Z,17.66
2023-03-27T09:41:08.998Z,17.99
2023-03-27T09:43:35.328Z,18.02
2023-03-27T09:46:02.627Z,18.31
2023-03-27T09:48:29.006Z,18.33
2023-03-27T09:53:40.428Z,18.39
2023-03-27T09:56:07.820Z,18.42
2023-03-27T09:58:34.314Z,18.32
2023-03-27T10:01:01.679Z,18.44
2023-03-27T10:03:28.222Z,18.50
2023-03-27T10:08:49.742Z,18.50
2023-03-27T10:11:16.265Z,18.59
2023-03-27T10:13:42.725Z,18.69
2023-03-27T10:16:09.209Z,18.64
2023-03-27T10:18:35.633Z,18.59
2023-03-27T10:24:25.839Z,18.71
2023-03-27T10:26:52.245Z,18.66
2023-03-27T10:29:18.623Z,18.62
2023-03-27T10:31:45.082Z,18.66
2023-03-27T10:34:12.315Z,18.65
2023-03-27T10:39:32.656Z,18.75
2023-03-27T10:41:59.936Z,18.83
2023-03-27T10:44:26.415Z,18.67
2023-03-27T10:46:52.837Z,18.72
2023-03-27T10:49:19.215Z,18.62
2023-03-27T10:54:44.109Z,18.77
2023-03-27T10:57:12.554Z,18.89
2023-03-27T10:59:41.813Z,19.02
2023-03-27T11:02:09.973Z,19.01
2023-03-27T11:04:36.381Z,19.03
2023-03-27T11:09:46.721Z,19.07
2023-03-27T11:12:13.092Z,19.05
2023-03-27T11:14:39.618Z,18.91
2023-03-27T11:17:05.972Z,18.73
2023-03-27T11:19:32.419Z,18.72
2023-03-27T11:24:42.520Z,18.73
2023-03-27T11:27:09.876Z,18.65
2023-03-27T11:29:36.337Z,18.83
2023-03-27T11:32:05.477Z,18.84
2023-03-27T11:34:34.586Z,18.80
2023-03-27T11:39:54.928Z,18.80
2023-03-27T11:42:21.333Z,18.81
2023-03-27T11:44:47.684Z,18.90
2023-03-27T11:47:14.010Z,18.82
2023-03-27T11:49:40.313Z,18.74
2023-03-27T11:55:00.664Z,18.60
2023-03-27T11:57:27.080Z,18.68
2023-03-27T11:59:53.405Z,18.57
2023-03-27T12:02:19.762Z,18.72
2023-03-27T12:04:46.221Z,18.71
2023-03-27T12:09:59.173Z,18.16
2023-03-27T12:12:25.529Z,17.98
2023-03-27T12:14:51.928Z,17.85
2023-03-27T12:17:18.429Z,17.74
2023-03-27T12:19:44.745Z,17.76
2023-03-27T12:22:22.467Z,17.64
2023-03-27T12:24:59.428Z,17.70
2023-03-27T12:27:27.320Z,17.71
2023-03-27T12:29:56.516Z,17.78
2023-03-27T12:32:22.959Z,18.02
2023-03-27T12:34:49.321Z,18.12
2023-03-27T12:37:15.708Z,17.94
2023-03-27T12:39:42.033Z,17.82
2023-03-27T12:42:08.353Z,17.78
2023-03-27T12:44:34.689Z,17.88
2023-03-27T12:47:01.025Z,17.80
2023-03-27T12:49:37.142Z,17.85
2023-03-27T12:52:11.526Z,17.97
2023-03-27T12:54:38.948Z,17.90
2023-03-27T12:57:05.873Z,17.85
2023-03-27T12:59:32.525Z,17.86
2023-03-27T13:01:58.929Z,17.82
2023-03-27T13:04:25.291Z,17.74
2023-03-27T13:06:52.683Z,17.80
2023-03-27T13:09:19.096Z,17.80
2023-03-27T13:11:45.447Z,17.83
2023-03-27T13:14:11.805Z,17.84
2023-03-27T13:16:38.166Z,17.82
2023-03-27T13:19:04.592Z,17.82
2023-03-27T13:21:36.055Z,17.71
2023-03-27T13:24:02.924Z,17.60
2023-03-27T13:26:31.224Z,17.65
2023-03-27T13:28:57.597Z,17.60
2023-03-27T13:31:24.048Z,17.63
2023-03-27T13:33:51.448Z,17.56
2023-03-27T13:36:18.493Z,17.44
2023-03-27T13:38:44.973Z,17.46
2023-03-27T13:41:13.643Z,17.47
2023-03-27T13:43:40.001Z,17.39
2023-03-27T13:46:07.357Z,17.41
2023-03-27T13:48:34.666Z,17.46
2023-03-27T13:51:02.939Z,17.47
2023-03-27T13:53:29.890Z,17.30
2023-03-27T13:58:40.277Z,17.32
2023-03-27T14:01:06.636Z,17.34
2023-03-27T14:03:33.073Z,17.26
2023-03-27T14:05:59.673Z,17.26
2023-03-27T14:08:26.251Z,17.31
2023-03-27T14:13:46.427Z,17.30
2023-03-27T14:16:13.180Z,17.29
2023-03-27T14:18:39.543Z,17.33
2023-03-27T14:21:05.885Z,17.37
2023-03-27T14:23:32.251Z,17.35
2023-03-27T14:28:42.678Z,17.28
2023-03-27T14:31:09.129Z,17.28
2023-03-27T14:33:35.486Z,17.27
2023-03-27T14:36:02.123Z,17.19
2023-03-27T14:38:28.778Z,17.06
2023-03-27T14:43:39.113Z,17.17
2023-03-27T14:46:05.465Z,17.22
2023-03-27T14:48:34.589Z,17.26
2023-03-27T14:51:00.936Z,17.28
2023-03-27T14:53:27.272Z,17.38
2023-03-27T14:58:49.377Z,17.35
2023-03-27T15:01:15.819Z,17.30
2023-03-27T15:03:42.262Z,17.66
2023-03-27T15:06:08.619Z,18.09
2023-03-27T15:08:34.951Z,18.30
2023-03-27T15:13:55.034Z,18.50
2023-03-27T15:16:22.329Z,18.50
2023-03-27T15:18:49.825Z,18.47
2023-03-27T15:21:17.126Z,18.48
2023-03-27T15:23:43.590Z,18.49
2023-03-27T15:29:06.798Z,18.49
2023-03-27T15:31:33.307Z,18.53
2023-03-27T15:33:59.781Z,18.53
2023-03-27T15:36:26.378Z,18.56
2023-03-27T15:38:52.838Z,18.59
2023-03-27T15:44:02.931Z,18.73
2023-03-27T15:46:29.317Z,18.74
2023-03-27T15:48:55.716Z,18.82
2023-03-27T15:51:24.904Z,18.80
2023-03-27T15:53:52.132Z,18.75
2023-03-27T15:59:02.736Z,18.72
2023-03-27T16:01:29.102Z,18.76
2023-03-27T16:03:57.408Z,18.73
2023-03-27T16:06:25.419Z,18.68
2023-03-27T16:08:51.817Z,18.73
2023-03-27T16:14:02.013Z,18.76
2023-03-27T16:16:28.432Z,18.71
2023-03-27T16:18:54.988Z,18.74
2023-03-27T16:21:21.380Z,18.75
2023-03-27T16:23:47.773Z,18.75
2023-03-27T16:28:58.337Z,18.74
2023-03-27T16:31:24.693Z,18.77
2023-03-27T16:33:51.160Z,18.80
2023-03-27T16:36:17.530Z,18.78
2023-03-27T16:38:43.898Z,18.83
2023-03-27T16:44:06.885Z,18.88
2023-03-27T16:46:33.216Z,18.84
2023-03-27T16:48:59.567Z,18.89
2023-03-27T16:51:25.964Z,18.86
2023-03-27T16:53:52.454Z,18.88
2023-03-27T16:59:02.726Z,18.84
2023-03-27T17:01:29.058Z,18.88
2023-03-27T17:03:55.420Z,18.89
2023-03-27T17:06:21.732Z,18.89
2023-03-27T17:08:48.082Z,18.93
2023-03-27T17:11:14.447Z,18.87
2023-03-27T17:13:43.129Z,18.91
2023-03-27T17:16:09.860Z,18.91
2023-03-27T17:18:36.178Z,18.89
2023-03-27T17:21:02.510Z,18.88
2023-03-27T17:23:31.678Z,18.90
2023-03-27T17:26:00.800Z,18.94
2023-03-27T17:28:30.005Z,18.83
2023-03-27T17:31:04.506Z,18.86
2023-03-27T17:33:34.749Z,18.94
2023-03-27T17:36:01.526Z,18.91
2023-03-27T17:38:31.109Z,18.88
2023-03-27T17:41:00.231Z,18.92
2023-03-27T17:43:29.341Z,18.86
2023-03-27T17:45:55.832Z,18.88
2023-03-27T17:48:25.052Z,18.81
2023-03-27T17:51:05.215Z,18.79
2023-03-27T17:53:34.211Z,18.76
2023-03-27T17:56:03.399Z,18.77
2023-03-27T17:58:29.747Z,18.70
2023-03-27T18:00:56.078Z,18.75
2023-03-27T18:03:22.517Z,18.72
2023-03-27T18:05:48.911Z,18.69
2023-03-27T18:08:15.351Z,18.76
2023-03-27T18:10:41.767Z,18.73
2023-03-27T18:13:08.106Z,18.74
2023-03-27T18:15:34.422Z,18.72
2023-03-27T18:18:00.801Z,18.68
2023-03-27T18:20:27.152Z,18.70
2023-03-27T18:22:53.468Z,18.70
2023-03-27T18:25:19.839Z,18.73
2023-03-27T18:27:48.967Z,18.68
2023-03-27T18:30:15.354Z,18.75
2023-03-27T18:32:44.510Z,18.87
2023-03-27T18:35:10.922Z,18.88
2023-03-27T18:37:37.260Z,18.87
2023-03-27T18:40:03.589Z,18.95
2023-03-27T18:42:29.967Z,18.94
2023-03-27T18:47:40.409Z,18.97
2023-03-27T18:50:06.832Z,19.00
2023-03-27T18:52:33.174Z,18.98
2023-03-27T18:54:59.557Z,18.97
2023-03-27T18:57:25.940Z,18.91
2023-03-27T19:02:46.072Z,19.03
2023-03-27T19:05:12.638Z,18.94
2023-03-27T19:07:44.660Z,19.02
2023-03-27T19:10:12.273Z,19.03
2023-03-27T19:12:38.634Z,18.97
2023-03-27T19:17:49.068Z,18.99
2023-03-27T19:20:16.296Z,18.94
2023-03-27T19:22:42.642Z,18.94
2023-03-27T19:25:09.046Z,18.99
2023-03-27T19:27:39.035Z,18.90
2023-03-27T19:32:49.540Z,18.93
2023-03-27T19:35:15.894Z,18.99
2023-03-27T19:37:42.484Z,18.91
2023-03-27T19:40:08.925Z,18.96
2023-03-27T19:42:35.264Z,18.98
2023-03-27T19:47:55.593Z,18.89
2023-03-27T19:50:21.937Z,18.94
2023-03-27T19:52:57.196Z,18.92
2023-03-27T19:55:27.993Z,18.90
2023-03-27T19:57:54.355Z,18.97
2023-03-27T20:03:15.745Z,18.96
2023-03-27T20:05:42.203Z,18.82
2023-03-27T20:08:08.550Z,18.93
2023-03-27T20:10:34.893Z,18.87
2023-03-27T20:13:01.253Z,18.94
2023-03-27T20:18:11.440Z,18.88
2023-03-27T20:20:40.562Z,18.90
2023-03-27T20:23:06.894Z,18.83
2023-03-27T20:25:36.021Z,18.91
2023-03-27T20:28:02.372Z,18.92
2023-03-27T20:33:12.583Z,19.01
2023-03-27T20:35:38.953Z,19.02
2023-03-27T20:38:05.326Z,19.13
2023-03-27T20:40:39.572Z,18.98
2023-03-27T20:43:13.049Z,18.86
2023-03-27T20:48:23.261Z,18.94
2023-03-27T20:50:49.609Z,18.91
2023-03-27T20:53:15.947Z,18.89
2023-03-27T20:55:53.170Z,18.78
2023-03-27T20:58:25.467Z,18.82
2023-03-27T21:03:48.704Z,18.83
2023-03-27T21:06:15.038Z,18.80
2023-03-27T21:08:41.379Z,18.80
2023-03-27T21:11:07.696Z,18.80
2023-03-27T21:13:34.039Z,18.82
2023-03-27T21:18:54.129Z,18.97
2023-03-27T21:21:20.512Z,18.86
2023-03-27T21:23:46.833Z,18.84
2023-03-27T21:26:15.954Z,18.85
2023-03-27T21:28:45.075Z,18.80
2023-03-27T21:34:05.074Z,18.82
2023-03-27T21:36:34.346Z,18.78
2023-03-27T21:39:03.540Z,18.75
2023-03-27T21:41:32.685Z,18.87
2023-03-27T21:44:00.153Z,18.84
2023-03-27T21:49:11.541Z,18.97
2023-03-27T21:51:37.883Z,18.92
2023-03-27T21:54:05.447Z,19.03
2023-03-27T21:56:31.799Z,18.93
2023-03-27T21:58:58.219Z,18.79
2023-03-27T22:04:08.666Z,18.80
2023-03-27T22:06:35.046Z,18.88
2023-03-27T22:09:01.350Z,18.83
2023-03-27T22:11:27.708Z,18.82
2023-03-27T22:13:54.066Z,18.93
2023-03-27T22:19:14.272Z,18.84
2023-03-27T22:21:40.608Z,18.76
2023-03-27T22:24:07.012Z,18.72
2023-03-27T22:26:33.369Z,18.76
2023-03-27T22:28:59.740Z,18.73
2023-03-27T22:34:20.172Z,18.74
2023-03-27T22:36:46.562Z,18.81
2023-03-27T22:39:12.871Z,18.79
2023-03-27T22:41:39.208Z,18.77
2023-03-27T22:44:05.580Z,18.79
2023-03-27T22:49:15.879Z,18.72
2023-03-27T22:51:45.014Z,18.78
2023-03-27T22:54:14.127Z,18.69
2023-03-27T22:56:40.513Z,18.68
2023-03-27T22:59:06.857Z,18.72
2023-03-27T23:04:27.101Z,18.69
2023-03-27T23:06:53.430Z,18.71
2023-03-27T23:09:19.766Z,18.72
2023-03-27T23:11:46.086Z,18.67
2023-03-27T23:14:12.441Z,18.75
2023-03-27T23:19:25.531Z,18.68
2023-03-27T23:21:51.836Z,18.64
2023-03-27T23:24:18.232Z,18.67
2023-03-27T23:26:44.540Z,18.64
2023-03-27T23:29:10.880Z,18.78
2023-03-27T23:31:37.240Z,18.67
2023-03-27T23:34:03.615Z,18.78
2023-03-27T23:36:29.926Z,18.76
2023-03-27T23:38:56.270Z,18.72
2023-03-27T23:41:22.614Z,18.80
2023-03-27T23:43:49.020Z,18.70
2023-03-27T23:46:18.141Z,18.63
2023-03-27T23:48:47.274Z,18.74
2023-03-27T23:51:13.618Z,18.65
2023-03-27T23:53:42.737Z,18.70
2023-03-27T23:56:09.058Z,18.66
2023-03-27T23:58:35.386Z,18.72
